Time;durP1;ratioP1;P1;durP2;ratioP2;P2;SDS_P1;SDS_P2;PMS_P1;PMS_P2;Temp;Humidity;BMP_temperature;BMP_pressure;BME280_temperature;BME280_humidity;BME280_pressure;Samples;Min_cycle;Max_cycle;Signal;HPM_P1;HPM_P2
2022/06/10 00:00:45;;;;;;;6.15;0.85;;;12.70;93.10;;;;;;5033871;28;20041;-71
2022/06/10 00:03:14;;;;;;;1.77;0.70;;;12.80;92.80;;;;;;5034198;28;20104;-64
2022/06/10 00:05:44;;;;;;;3.10;0.68;;;12.80;92.70;;;;;;5033523;28;20018;-73
2022/06/10 00:08:15;;;;;;;6.40;1.02;;;12.90;92.60;;;;;;5031750;28;20031;-72
2022/06/10 00:10:45;;;;;;;1.80;0.70;;;12.90;92.70;;;;;;5032016;28;20037;-66
2022/06/10 00:13:14;;;;;;;1.60;0.60;;;13.00;92.70;;;;;;5032266;28;20444;-68
2022/06/10 00:15:41;;;;;;;1.30;0.85;;;13.10;92.00;;;;;;5032066;28;20557;-66
2022/06/10 00:18:10;;;;;;;2.85;0.60;;;13.20;92.00;;;;;;5031376;28;20040;-70
2022/06/10 00:20:38;;;;;;;2.40;0.50;;;13.20;92.20;;;;;;5032278;28;20083;-70
2022/06/10 00:23:06;;;;;;;1.55;0.70;;;13.30;91.90;;;;;;5033178;28;20025;-71
2022/06/10 00:25:34;;;;;;;5.65;1.17;;;13.30;91.80;;;;;;5034262;28;20033;-73
2022/06/10 00:28:01;;;;;;;1.83;0.68;;;13.40;91.80;;;;;;5033920;28;20018;-70
2022/06/10 00:30:31;;;;;;;2.17;0.80;;;13.50;91.30;;;;;;5033461;28;20056;-72
2022/06/10 00:32:59;;;;;;;1.70;0.70;;;13.60;91.60;;;;;;5033721;28;20053;-69
2022/06/10 00:35:28;;;;;;;1.30;0.70;;;13.60;91.30;;;;;;5033574;28;20065;-69
2022/06/10 00:37:57;;;;;;;2.05;0.70;;;13.70;91.40;;;;;;5033618;28;20057;-70
2022/06/10 00:40:31;;;;;;;1.65;0.52;;;13.80;91.20;;;;;;5034154;28;20020;-71
2022/06/10 00:42:58;;;;;;;1.05;0.52;;;13.80;91.00;;;;;;5033284;28;20359;-71
2022/06/10 00:46:04;;;;;;;1.63;0.60;;;13.90;90.40;;;;;;5031781;28;20037;-70
2022/06/10 00:48:54;;;;;;;0.85;0.50;;;14.00;90.40;;;;;;5032730;28;20402;-71
2022/06/10 00:51:24;;;;;;;2.35;0.57;;;14.10;90.30;;;;;;5033126;28;20025;-72
2022/06/10 00:54:13;;;;;;;1.75;0.40;;;14.10;90.70;;;;;;5031612;28;20049;-73
2022/06/10 00:56:47;;;;;;;3.08;0.60;;;14.30;90.20;;;;;;5032860;28;20057;-71
2022/06/10 00:59:26;;;;;;;2.78;0.60;;;14.30;90.20;;;;;;5033025;28;20029;-72
2022/06/10 01:02:00;;;;;;;0.95;0.52;;;14.40;89.60;;;;;;5048342;28;20394;-72
2022/06/10 01:04:28;;;;;;;2.83;0.60;;;14.40;90.00;;;;;;5033391;28;20193;-68
2022/06/10 01:06:58;;;;;;;3.22;0.70;;;14.50;89.50;;;;;;5032850;28;20049;-73
2022/06/10 01:09:29;;;;;;;0.95;0.52;;;14.60;89.30;;;;;;5031339;28;20442;-72
2022/06/10 01:12:17;;;;;;;1.58;0.85;;;14.60;89.60;;;;;;5031222;28;20018;-69
2022/06/10 01:15:05;;;;;;;3.83;0.43;;;14.70;88.70;;;;;;5032642;28;20052;-67
2022/06/10 01:17:43;;;;;;;2.63;0.63;;;14.90;88.00;;;;;;5032927;28;20040;-71
2022/06/10 01:20:29;;;;;;;1.10;0.52;;;15.00;88.40;;;;;;5032794;28;20064;-68
2022/06/10 01:23:02;;;;;;;3.90;0.40;;;15.10;86.70;;;;;;5032496;28;20091;-73
2022/06/10 01:25:39;;;;;;;2.08;0.50;;;15.20;86.50;;;;;;5032575;28;20469;-72
2022/06/10 01:28:32;;;;;;;0.47;0.40;;;15.30;86.20;;;;;;5032808;28;20493;-71
2022/06/10 01:31:27;;;;;;;1.65;0.50;;;15.30;85.60;;;;;;5032631;28;20042;-69
2022/06/10 01:34:12;;;;;;;2.15;0.40;;;15.50;86.10;;;;;;5032242;28;20092;-71
2022/06/10 01:37:04;;;;;;;2.10;0.40;;;15.50;85.40;;;;;;5032185;28;20033;-69
2022/06/10 01:40:15;;;;;;;0.80;0.40;;;15.60;85.00;;;;;;5032141;28;20021;-74
2022/06/10 01:43:19;;;;;;;3.25;0.63;;;15.70;84.80;;;;;;5030435;28;20041;-73
2022/06/10 01:45:50;;;;;;;2.33;0.50;;;15.90;84.10;;;;;;5032477;28;20100;-72
2022/06/10 01:48:40;;;;;;;1.42;0.50;;;16.10;83.50;;;;;;5032715;28;20100;-72
2022/06/10 01:51:29;;;;;;;0.77;0.50;;;16.10;83.00;;;;;;5032213;28;20475;-73
2022/06/10 01:54:12;;;;;;;1.85;0.52;;;16.20;82.80;;;;;;5032092;28;20069;-68
2022/06/10 01:56:47;;;;;;;1.10;0.43;;;16.30;82.10;;;;;;5032129;28;20064;-72
2022/06/10 01:59:19;;;;;;;2.28;0.60;;;16.50;82.50;;;;;;5032283;28;20017;-68
2022/06/10 02:02:01;;;;;;;2.15;0.50;;;16.50;81.00;;;;;;5032142;28;20050;-72
2022/06/10 02:04:34;;;;;;;0.65;0.50;;;16.60;81.40;;;;;;5032015;28;20072;-70
2022/06/10 02:07:14;;;;;;;1.38;0.95;;;16.70;80.80;;;;;;5032153;28;20029;-70
2022/06/10 02:09:50;;;;;;;1.65;0.40;;;16.80;80.30;;;;;;5031986;28;20497;-68
2022/06/10 02:12:38;;;;;;;0.55;0.40;;;16.90;80.10;;;;;;5031924;28;20513;-73
2022/06/10 02:15:12;;;;;;;1.10;0.40;;;16.80;79.80;;;;;;5031819;28;20026;-71
2022/06/10 02:17:44;;;;;;;1.95;0.50;;;16.90;79.50;;;;;;5031894;28;20109;-71
2022/06/10 02:20:17;;;;;;;1.30;0.40;;;16.90;78.80;;;;;;5031874;28;20025;-70
2022/06/10 02:22:46;;;;;;;1.88;0.40;;;17.00;79.60;;;;;;5031922;28;20173;-72
2022/06/10 02:25:16;;;;;;;0.70;0.50;;;17.00;79.10;;;;;;5032017;28;20029;-72
2022/06/10 02:27:49;;;;;;;0.38;0.30;;;17.00;78.60;;;;;;5032068;28;20021;-68
2022/06/10 02:30:19;;;;;;;;;;;17.20;78.20;;;;;;5032475;28;20385;-69
2022/06/10 02:32:47;;;;;;;0.40;0.40;;;17.40;79.20;;;;;;5031972;28;20302;-71
2022/06/10 02:35:16;;;;;;;0.85;0.50;;;17.80;76.70;;;;;;5031943;28;20029;-71
2022/06/10 02:37:52;;;;;;;0.52;0.30;;;17.90;76.70;;;;;;5031915;28;20033;-74
2022/06/10 02:40:36;;;;;;;0.60;0.40;;;18.00;75.60;;;;;;5032626;28;20033;-72
2022/06/10 02:43:09;;;;;;;0.75;0.50;;;18.00;75.30;;;;;;5035455;28;20022;-67
2022/06/10 02:45:57;;;;;;;1.50;0.40;;;18.30;74.20;;;;;;5035528;28;20386;-66
2022/06/10 02:48:32;;;;;;;2.60;0.38;;;18.70;74.60;;;;;;5035828;28;20388;-68
2022/06/10 02:51:00;;;;;;;0.88;0.52;;;19.20;73.00;;;;;;5035682;28;20100;-68
2022/06/10 02:53:28;;;;;;;1.92;0.73;;;19.50;71.80;;;;;;5035218;28;20040;-69
2022/06/10 02:55:56;;;;;;;4.20;0.82;;;20.00;70.50;;;;;;5035047;28;20041;-65
2022/06/10 03:01:20;;;;;;;0.40;0.40;;;20.00;68.40;;;;;;5035393;28;20504;-72
2022/06/10 03:03:53;;;;;;;1.38;0.30;;;19.80;69.00;;;;;;5035604;28;20033;-71
2022/06/10 03:06:59;;;;;;;0.50;0.30;;;19.90;69.00;;;;;;5035288;28;20479;-70
2022/06/10 03:09:51;;;;;;;3.28;0.30;;;19.70;68.20;;;;;;5034962;28;20377;-71
2022/06/10 03:12:35;;;;;;;0.43;0.40;;;19.60;68.70;;;;;;5035246;28;20028;-69
2022/06/10 03:15:24;;;;;;;1.77;0.43;;;19.70;68.80;;;;;;5035000;28;20022;-66
2022/06/10 03:18:00;;;;;;;0.47;0.30;;;20.20;68.70;;;;;;5034796;28;20033;-68
2022/06/10 03:20:33;;;;;;;0.68;0.30;;;20.50;66.80;;;;;;5034762;28;20039;-70
2022/06/10 03:23:17;;;;;;;1.95;0.50;;;20.60;66.90;;;;;;5034612;28;20037;-72
2022/06/10 03:25:54;;;;;;;0.70;0.32;;;20.70;66.40;;;;;;5034883;28;20029;-73
2022/06/10 03:28:53;;;;;;;0.95;0.40;;;20.80;67.00;;;;;;5034778;28;20040;-69
2022/06/10 03:31:34;;;;;;;0.30;0.30;;;21.10;66.40;;;;;;5033780;28;20053;-75
2022/06/10 03:34:20;;;;;;;0.55;0.38;;;21.40;64.70;;;;;;5034862;28;20096;-72
2022/06/10 03:36:49;;;;;;;1.23;0.30;;;21.60;65.00;;;;;;5018900;28;20057;-66
2022/06/10 03:39:21;;;;;;;0.50;0.50;;;21.90;64.50;;;;;;5034759;28;20025;-68
2022/06/10 03:42:13;;;;;;;1.40;0.40;;;22.20;63.20;;;;;;5034673;28;20377;-66
2022/06/10 03:44:40;;;;;;;1.45;0.30;;;22.50;63.00;;;;;;5034869;28;20029;-68
2022/06/10 03:47:11;;;;;;;1.05;0.45;;;22.70;62.30;;;;;;5034537;28;20101;-67
2022/06/10 03:50:16;;;;;;;1.23;0.40;;;22.70;63.10;;;;;;5034713;28;20025;-67
2022/06/10 03:52:44;;;;;;;1.20;0.30;;;22.80;62.50;;;;;;5032725;28;20037;-65
2022/06/10 03:55:17;;;;;;;0.30;0.30;;;23.00;61.00;;;;;;5034182;28;20045;-65
2022/06/10 03:57:46;;;;;;;0.40;0.38;;;22.90;61.10;;;;;;5049482;28;20585;-66
2022/06/10 04:00:17;;;;;;;0.63;0.30;;;22.90;61.20;;;;;;5034096;28;20109;-68
2022/06/10 04:02:44;;;;;;;0.30;0.20;;;22.80;61.30;;;;;;5034161;28;20021;-66
2022/06/10 04:05:12;;;;;;;1.10;0.30;;;22.40;61.60;;;;;;5034018;28;20021;-71
2022/06/10 04:07:41;;;;;;;1.00;0.30;;;22.00;61.40;;;;;;5034200;28;20383;-73
2022/06/10 04:10:12;;;;;;;1.10;0.30;;;21.30;62.90;;;;;;5034759;28;20032;-66
2022/06/10 04:12:40;;;;;;;0.75;0.28;;;20.50;64.40;;;;;;5033343;28;20114;-67
2022/06/10 04:15:08;;;;;;;0.85;0.45;;;19.80;65.10;;;;;;5033165;28;20091;-64
2022/06/10 04:17:36;;;;;;;1.38;0.30;;;19.30;66.40;;;;;;5034556;28;20034;-65
2022/06/10 04:20:04;;;;;;;2.53;0.40;;;18.80;67.00;;;;;;5034698;28;20022;-69
2022/06/10 04:22:32;;;;;;;1.85;0.60;;;18.40;68.80;;;;;;5035369;28;20044;-74
2022/06/10 04:24:59;;;;;;;1.17;0.43;;;18.20;69.20;;;;;;5035036;28;20022;-67
2022/06/10 04:27:26;;;;;;;2.22;0.50;;;18.00;69.90;;;;;;5034223;28;20014;-67
2022/06/10 04:29:58;;;;;;;0.75;0.68;;;17.90;70.30;;;;;;5034153;28;20017;-71
2022/06/10 04:32:26;;;;;;;0.55;0.30;;;17.80;70.40;;;;;;5034976;28;20174;-75
2022/06/10 04:34:55;;;;;;;2.65;0.30;;;17.80;71.00;;;;;;5050418;28;20026;-70
2022/06/10 04:37:23;;;;;;;0.85;0.35;;;17.70;71.40;;;;;;5033426;28;20132;-70
2022/06/10 04:39:50;;;;;;;0.35;0.35;;;17.60;71.60;;;;;;5034258;28;20017;-71
2022/06/10 04:42:17;;;;;;;0.90;0.40;;;17.60;71.20;;;;;;5034289;28;20033;-73
2022/06/10 04:44:45;;;;;;;1.35;0.40;;;17.60;70.70;;;;;;5033198;28;20028;-68
2022/06/10 04:47:12;;;;;;;0.47;0.45;;;17.50;71.80;;;;;;5033041;28;20083;-73
2022/06/10 04:49:40;;;;;;;1.30;0.43;;;17.50;70.10;;;;;;5033294;28;20033;-70
2022/06/10 04:52:07;;;;;;;2.08;0.40;;;17.40;70.80;;;;;;5032983;28;20390;-71
2022/06/10 04:54:34;;;;;;;1.75;0.43;;;17.40;71.40;;;;;;5033367;28;20037;-67
2022/06/10 04:57:02;;;;;;;2.00;0.40;;;17.40;72.00;;;;;;5033178;28;20401;-70
2022/06/10 04:59:29;;;;;;;1.35;0.30;;;17.40;72.10;;;;;;5032983;28;20013;-69
2022/06/10 05:01:56;;;;;;;3.60;0.60;;;17.30;70.90;;;;;;5032733;28;20029;-69
2022/06/10 05:04:24;;;;;;;1.73;0.40;;;17.30;70.40;;;;;;5032533;28;20026;-67
2022/06/10 05:06:51;;;;;;;0.70;0.40;;;17.30;70.30;;;;;;5032594;28;20026;-68
2022/06/10 05:09:18;;;;;;;0.75;0.40;;;17.30;70.70;;;;;;5033163;28;20068;-70
2022/06/10 05:11:46;;;;;;;1.88;0.40;;;17.40;70.30;;;;;;5032866;28;20031;-68
2022/06/10 05:14:16;;;;;;;3.88;0.40;;;17.30;69.60;;;;;;5032668;28;20021;-72
2022/06/10 05:16:44;;;;;;;0.52;0.30;;;17.30;70.20;;;;;;5032165;28;20037;-72
2022/06/10 05:19:11;;;;;;;0.82;0.30;;;17.20;70.20;;;;;;5032592;28;20458;-66
2022/06/10 05:21:38;;;;;;;0.40;0.30;;;17.20;70.60;;;;;;5031991;28;20462;-65
2022/06/10 05:24:06;;;;;;;0.82;0.82;;;17.10;71.40;;;;;;5031960;28;20021;-67
2022/06/10 05:26:33;;;;;;;1.13;0.47;;;17.20;71.00;;;;;;5031567;28;20028;-69
2022/06/10 05:29:02;;;;;;;6.45;0.50;;;17.20;70.60;;;;;;5032419;28;20022;-70
2022/06/10 05:31:29;;;;;;;3.53;0.55;;;17.30;71.00;;;;;;5032694;28;20017;-68
2022/06/10 05:36:42;;;;;;;3.95;1.58;;;17.80;70.50;;;;;;5032318;28;20120;-67
2022/06/10 05:39:09;;;;;;;1.42;0.40;;;18.00;69.20;;;;;;5031830;28;20466;-72
2022/06/10 05:44:25;;;;;;;1.50;0.40;;;17.80;70.00;;;;;;5032473;28;20469;-71
2022/06/10 05:46:55;;;;;;;0.85;0.40;;;17.70;70.00;;;;;;5032100;28;20098;-73
2022/06/10 05:49:23;;;;;;;1.48;0.40;;;17.50;69.80;;;;;;5040346;28;20100;-72
2022/06/10 05:51:50;;;;;;;1.10;0.43;;;17.50;70.20;;;;;;5027571;28;20034;-76
2022/06/10 05:54:19;;;;;;;1.30;0.30;;;17.50;70.80;;;;;;5027850;28;20572;-73
2022/06/10 05:56:46;;;;;;;3.13;0.93;;;17.60;70.70;;;;;;5031191;28;20489;-74
2022/06/10 05:59:14;;;;;;;0.70;0.40;;;17.70;70.80;;;;;;5048691;28;20783;-72
2022/06/10 06:01:42;;;;;;;0.40;0.40;;;17.80;70.50;;;;;;5054486;28;20029;-69
2022/06/10 06:04:11;;;;;;;0.57;0.30;;;18.00;69.50;;;;;;5031164;28;20017;-73
2022/06/10 06:06:39;;;;;;;2.38;0.30;;;17.90;68.60;;;;;;5029855;28;20127;-76
2022/06/10 06:09:07;;;;;;;0.50;0.22;;;17.80;69.00;;;;;;5028418;28;20075;-75
2022/06/10 06:11:34;;;;;;;0.82;0.47;;;17.70;69.90;;;;;;5026549;28;20025;-77
2022/06/10 06:14:02;;;;;;;0.70;0.45;;;17.30;70.00;;;;;;5030595;28;20334;-75
2022/06/10 06:16:29;;;;;;;1.67;0.40;;;17.10;70.60;;;;;;5033724;28;20041;-70
2022/06/10 06:18:56;;;;;;;0.70;0.30;;;16.80;70.90;;;;;;5053206;28;20497;-75
2022/06/10 06:21:23;;;;;;;1.52;0.52;;;16.60;72.40;;;;;;5028584;28;20049;-73
2022/06/10 06:23:51;;;;;;;0.50;0.40;;;16.40;72.20;;;;;;5030436;28;20075;-73
2022/06/10 06:26:18;;;;;;;1.55;0.60;;;16.20;72.50;;;;;;5029688;28;20018;-74
2022/06/10 06:28:46;;;;;;;1.15;0.50;;;16.00;73.10;;;;;;5043852;28;20017;-76
2022/06/10 06:31:14;;;;;;;0.98;0.80;;;15.80;73.80;;;;;;5035912;28;20041;-76
2022/06/10 06:33:41;;;;;;;1.65;0.50;;;15.70;75.50;;;;;;5037019;28;20036;-72
2022/06/10 06:36:20;;;;;;;0.57;0.40;;;15.50;74.30;;;;;;5031794;28;20475;-73
2022/06/10 06:38:49;;;;;;;1.67;0.50;;;15.40;74.70;;;;;;5021648;28;20026;-68
2022/06/10 06:41:17;;;;;;;2.72;0.50;;;15.30;75.10;;;;;;5024707;28;20105;-71
2022/06/10 06:43:44;;;;;;;1.00;0.60;;;15.20;75.30;;;;;;5015030;28;20112;-71
2022/06/10 06:46:17;;;;;;;1.75;0.50;;;15.10;75.50;;;;;;5010284;28;20034;-70
2022/06/10 06:48:46;;;;;;;2.40;0.50;;;15.00;76.10;;;;;;5013533;28;20037;-68
2022/06/10 06:51:15;;;;;;;0.57;0.52;;;14.90;76.00;;;;;;5029857;28;20033;-72
2022/06/10 06:53:42;;;;;;;0.40;0.40;;;14.90;76.40;;;;;;5042674;28;20057;-69
2022/06/10 06:56:10;;;;;;;1.42;0.60;;;14.80;76.60;;;;;;5049665;28;20477;-73
2022/06/10 06:58:38;;;;;;;2.78;0.60;;;14.70;77.10;;;;;;5044163;28;20415;-72
2022/06/10 07:01:05;;;;;;;1.00;0.52;;;14.70;77.20;;;;;;5030792;28;20108;-74
2022/06/10 07:03:33;;;;;;;1.08;0.75;;;14.60;77.60;;;;;;5048419;28;20477;-72
2022/06/10 07:06:00;;;;;;;1.92;0.50;;;14.60;77.60;;;;;;5049963;28;20025;-71
2022/06/10 07:08:34;;;;;;;2.15;0.68;;;14.50;78.10;;;;;;5042311;28;20048;-68
2022/06/10 07:11:02;;;;;;;2.50;0.95;;;14.40;78.10;;;;;;5029472;28;20068;-74
2022/06/10 07:13:30;;;;;;;2.15;0.73;;;14.40;78.40;;;;;;5032464;28;20086;-74
2022/06/10 07:15:59;;;;;;;1.15;0.55;;;14.40;79.10;;;;;;5048579;28;20020;-72
2022/06/10 07:18:26;;;;;;;1.60;0.68;;;14.30;79.50;;;;;;5062679;28;20497;-74
2022/06/10 07:20:53;;;;;;;1.40;0.77;;;14.20;79.70;;;;;;5030694;28;20025;-71
2022/06/10 07:23:21;;;;;;;1.20;0.70;;;14.10;80.00;;;;;;5030893;28;20025;-74
2022/06/10 07:25:51;;;;;;;1.20;0.70;;;14.10;80.30;;;;;;5033207;28;20021;-75
2022/06/10 07:28:18;;;;;;;1.92;0.90;;;14.00;80.60;;;;;;5052680;28;20013;-75
2022/06/10 07:30:45;;;;;;;3.00;0.80;;;13.90;80.70;;;;;;5033273;28;20023;-72
2022/06/10 07:33:13;;;;;;;4.28;0.90;;;14.00;81.10;;;;;;5033275;28;20118;-76
2022/06/10 07:35:41;;;;;;;4.18;2.53;;;13.80;81.80;;;;;;5033821;28;20532;-72
2022/06/10 07:38:11;;;;;;;19.70;16.80;;;13.80;81.90;;;;;;5014519;28;20380;-72
2022/06/10 07:43:30;;;;;;;3.53;2.63;;;13.60;82.40;;;;;;5018502;28;20036;-71
2022/06/10 07:45:59;;;;;;;3.92;1.58;;;13.60;82.70;;;;;;5034271;28;20462;-74
2022/06/10 07:48:27;;;;;;;2.42;1.30;;;13.50;83.00;;;;;;5041195;28;20202;-69
2022/06/10 07:50:54;;;;;;;2.60;1.20;;;13.50;83.40;;;;;;5049625;28;20044;-73
2022/06/10 07:53:22;;;;;;;3.13;1.45;;;13.40;83.00;;;;;;5033184;28;20045;-70
2022/06/10 07:55:49;;;;;;;3.22;1.77;;;13.40;83.50;;;;;;5035908;28;20481;-72
2022/06/10 07:58:18;;;;;;;1.70;1.13;;;13.40;83.20;;;;;;5052713;28;20021;-74
2022/06/10 08:00:46;;;;;;;5.90;5.20;;;13.40;83.50;;;;;;5040122;28;20028;-71
2022/06/10 08:03:17;;;;;;;17.35;15.43;;;13.30;83.70;;;;;;5032873;28;20034;-69
2022/06/10 08:05:44;;;;;;;6.57;5.22;;;13.30;84.40;;;;;;5046181;28;20104;-68
2022/06/10 08:08:16;;;;;;;9.85;8.82;;;13.20;83.20;;;;;;5051412;28;20029;-75
2022/06/10 08:10:44;;;;;;;2.40;1.83;;;13.20;83.40;;;;;;5014098;28;20121;-68
2022/06/10 08:13:12;;;;;;;5.63;4.72;;;13.20;83.00;;;;;;5033193;28;20028;-73
2022/06/10 08:15:40;;;;;;;5.07;3.92;;;13.20;82.90;;;;;;5036787;28;20047;-71
2022/06/10 08:18:08;;;;;;;3.38;2.13;;;13.20;83.00;;;;;;5052406;28;20043;-69
2022/06/10 08:23:28;;;;;;;2.85;2.28;;;13.20;83.00;;;;;;5033077;28;20032;-67
2022/06/10 08:25:56;;;;;;;3.05;1.83;;;13.20;82.90;;;;;;5031500;28;20030;-68
2022/06/10 08:28:24;;;;;;;2.38;1.58;;;13.20;83.40;;;;;;5032297;28;20041;-69
2022/06/10 08:30:52;;;;;;;3.50;1.95;;;13.20;83.40;;;;;;5049077;28;20021;-69
2022/06/10 08:33:20;;;;;;;2.25;1.58;;;13.10;83.60;;;;;;5052560;28;20032;-69
2022/06/10 08:35:47;;;;;;;2.30;1.67;;;13.00;83.40;;;;;;5051697;28;20063;-73
2022/06/10 08:38:17;;;;;;;2.97;2.10;;;13.10;83.20;;;;;;5050693;28;20025;-71
2022/06/10 08:41:08;;;;;;;1.60;1.08;;;13.10;83.40;;;;;;5033624;28;20045;-72
2022/06/10 08:44:11;;;;;;;1.55;1.10;;;13.00;83.50;;;;;;5052586;28;20470;-66
2022/06/10 08:47:03;;;;;;;2.22;1.23;;;13.00;83.90;;;;;;5052264;28;20495;-72
2022/06/10 08:49:46;;;;;;;1.92;1.17;;;13.00;83.50;;;;;;5041874;28;20067;-66
2022/06/10 08:52:19;;;;;;;7.90;6.50;;;12.90;83.80;;;;;;5032609;28;20021;-69
2022/06/10 08:55:13;;;;;;;2.78;1.80;;;12.90;83.80;;;;;;5047044;28;20049;-67
2022/06/10 08:57:46;;;;;;;1.52;1.10;;;12.90;83.90;;;;;;5052488;28;20064;-67
2022/06/10 09:00:24;;;;;;;1.73;1.45;;;12.80;84.10;;;;;;5035538;28;20021;-66
2022/06/10 09:03:19;;;;;;;5.03;3.95;;;12.80;84.50;;;;;;5032447;28;20087;-68
2022/06/10 09:05:49;;;;;;;3.67;1.60;;;12.80;84.30;;;;;;5030562;28;20039;-71
2022/06/10 09:08:27;;;;;;;2.63;2.10;;;12.80;84.60;;;;;;5051099;28;20047;-68
2022/06/10 09:11:06;;;;;;;3.97;2.03;;;12.70;84.50;;;;;;5032191;28;20480;-67
2022/06/10 09:13:53;;;;;;;2.28;1.55;;;12.80;84.40;;;;;;5037726;28;20033;-72
2022/06/10 09:16:26;;;;;;;2.28;1.60;;;12.70;84.50;;;;;;5051481;28;20098;-71
2022/06/10 09:19:17;;;;;;;2.97;1.40;;;12.70;85.00;;;;;;5046681;28;20022;-72
2022/06/10 09:22:02;;;;;;;2.60;1.52;;;12.70;84.80;;;;;;5032198;28;20021;-73
2022/06/10 09:24:44;;;;;;;4.18;2.80;;;12.70;85.00;;;;;;5032266;28;20049;-71
2022/06/10 09:27:37;;;;;;;3.47;1.73;;;12.70;85.20;;;;;;5045680;28;20550;-71
2022/06/10 09:30:07;;;;;;;6.15;3.53;;;12.60;85.70;;;;;;5036094;28;20041;-69
2022/06/10 09:32:54;;;;;;;4.88;3.20;;;12.60;85.40;;;;;;5032146;28;20025;-65
2022/06/10 09:35:51;;;;;;;3.08;2.03;;;12.60;85.40;;;;;;5051156;28;20029;-68
2022/06/10 09:38:40;;;;;;;11.38;8.02;;;12.60;85.40;;;;;;5050618;28;20441;-67
2022/06/10 09:41:39;;;;;;;2.13;1.30;;;12.50;85.40;;;;;;5033995;28;20105;-67
2022/06/10 09:44:24;;;;;;;5.50;3.20;;;12.50;85.30;;;;;;5049311;28;20082;-69
2022/06/10 09:47:33;;;;;;;2.25;2.00;;;12.60;85.40;;;;;;5051180;28;20028;-69
2022/06/10 09:50:06;;;;;;;3.85;1.42;;;12.50;85.60;;;;;;4994112;28;20031;-69
2022/06/10 09:53:11;;;;;;;5.18;2.38;;;12.50;85.70;;;;;;5030035;28;20033;-68
2022/06/10 09:55:48;;;;;;;3.55;1.85;;;12.50;85.90;;;;;;5051013;28;20504;-67
2022/06/10 09:58:33;;;;;;;1.52;0.90;;;12.40;85.80;;;;;;5049436;28;20501;-68
2022/06/10 10:01:15;;;;;;;2.05;1.30;;;12.40;85.90;;;;;;5035252;28;20159;-69
2022/06/10 10:04:09;;;;;;;3.60;1.40;;;12.40;86.20;;;;;;5031443;28;20401;-68
2022/06/10 10:06:46;;;;;;;4.28;2.13;;;12.40;86.20;;;;;;5027699;28;20021;-69
2022/06/10 10:09:21;;;;;;;5.55;3.70;;;12.30;86.20;;;;;;5031298;28;20101;-66
2022/06/10 10:11:51;;;;;;;3.83;1.65;;;12.30;86.50;;;;;;5028517;28;20489;-70
2022/06/10 10:14:40;;;;;;;2.72;1.23;;;12.20;86.40;;;;;;5050149;28;20086;-67
2022/06/10 10:17:29;;;;;;;3.03;1.58;;;12.20;86.70;;;;;;5051238;28;20029;-70
2022/06/10 10:20:08;;;;;;;3.25;1.92;;;12.20;86.50;;;;;;5031379;28;20052;-66
2022/06/10 10:22:56;;;;;;;3.97;1.35;;;12.20;86.60;;;;;;5032485;28;20025;-69
2022/06/10 10:25:26;;;;;;;3.20;1.60;;;12.20;87.20;;;;;;5043786;28;20581;-67
2022/06/10 10:27:55;;;;;;;3.20;1.55;;;12.10;87.10;;;;;;5031092;28;20390;-69
2022/06/10 10:30:46;;;;;;;3.05;1.23;;;12.10;87.20;;;;;;5031769;28;20377;-70
2022/06/10 10:33:17;;;;;;;3.33;1.67;;;12.00;87.30;;;;;;5010755;28;20033;-69
2022/06/10 10:35:51;;;;;;;5.32;1.85;;;12.00;87.30;;;;;;5027391;28;20477;-70
2022/06/10 10:38:44;;;;;;;3.28;1.27;;;12.00;87.90;;;;;;5045406;28;20030;-70
2022/06/10 10:41:26;;;;;;;2.70;1.30;;;12.00;87.80;;;;;;5029561;28;20021;-67
2022/06/10 10:43:57;;;;;;;2.45;1.48;;;11.90;87.80;;;;;;5030891;28;20028;-66
2022/06/10 10:46:41;;;;;;;3.67;1.52;;;11.90;87.90;;;;;;5031776;28;20378;-66
2022/06/10 10:49:26;;;;;;;6.22;3.28;;;11.90;88.00;;;;;;5041689;28;20308;-67
2022/06/10 10:51:55;;;;;;;2.78;1.60;;;11.90;88.60;;;;;;5028466;28;20030;-66
2022/06/10 10:54:34;;;;;;;2.75;1.77;;;11.90;88.40;;;;;;5044068;28;20329;-67
2022/06/10 10:57:12;;;;;;;3.53;2.10;;;11.90;88.40;;;;;;5049276;28;20496;-65
2022/06/10 10:59:43;;;;;;;1.85;1.40;;;11.80;88.60;;;;;;5048619;28;20059;-66
2022/06/10 11:02:31;;;;;;;4.53;2.70;;;11.80;88.60;;;;;;5037116;28;20029;-71
2022/06/10 11:05:35;;;;;;;3.13;1.90;;;11.80;88.60;;;;;;5034657;28;20017;-66
2022/06/10 11:08:14;;;;;;;;;;;11.70;88.80;;;;;;5041220;28;20401;-67
2022/06/10 11:11:01;;;;;;;1.92;1.30;;;11.70;88.90;;;;;;5018002;28;19913;-66
2022/06/10 11:13:45;;;;;;;2.05;1.55;;;11.70;89.40;;;;;;5034525;28;20025;-66
2022/06/10 11:16:34;;;;;;;2.53;1.70;;;11.70;89.50;;;;;;5034153;28;20033;-65
2022/06/10 11:19:26;;;;;;;3.97;1.10;;;11.60;89.60;;;;;;5033099;28;20022;-67
2022/06/10 11:22:21;;;;;;;1.65;1.08;;;11.60;89.60;;;;;;5034238;28;20021;-68
2022/06/10 11:25:15;;;;;;;2.80;1.10;;;11.60;89.90;;;;;;5051120;28;20025;-69
2022/06/10 11:28:16;;;;;;;1.42;1.00;;;11.60;90.00;;;;;;5054119;28;20538;-69
2022/06/10 11:30:48;;;;;;;2.47;1.15;;;11.60;90.20;;;;;;5047972;28;20040;-69
2022/06/10 11:33:29;;;;;;;2.15;1.45;;;11.50;90.30;;;;;;5019882;28;20437;-66
2022/06/10 11:36:02;;;;;;;8.48;4.38;;;11.50;90.40;;;;;;5019693;28;20034;-67
2022/06/10 11:38:32;;;;;;;2.40;1.65;;;11.50;90.50;;;;;;5022121;28;20072;-67
2022/06/10 11:41:22;;;;;;;3.63;1.48;;;11.40;90.60;;;;;;5031845;28;20030;-68
2022/06/10 11:44:12;;;;;;;3.45;1.92;;;11.40;90.80;;;;;;5025286;28;20677;-67
2022/06/10 11:46:55;;;;;;;2.63;2.30;;;11.40;90.60;;;;;;5032995;28;20389;-69
2022/06/10 11:49:47;;;;;;;2.35;1.42;;;11.40;90.80;;;;;;5033573;28;20489;-66
2022/06/10 11:52:38;;;;;;;2.53;1.83;;;11.30;90.80;;;;;;5037790;28;20473;-65
2022/06/10 11:55:27;;;;;;;3.25;2.35;;;11.30;91.10;;;;;;5052848;28;20052;-66
2022/06/10 12:01:14;;;;;;;2.38;0.80;;;11.20;91.20;;;;;;5018273;28;20039;-65
2022/06/10 12:03:53;;;;;;;1.75;1.00;;;11.20;91.40;;;;;;5039798;28;20053;-65
2022/06/10 12:06:23;;;;;;;2.13;1.38;;;11.20;91.50;;;;;;5052930;28;20020;-69
2022/06/10 12:09:32;;;;;;;2.50;2.00;;;11.20;91.50;;;;;;5048094;28;20018;-64
2022/06/10 12:12:32;;;;;;;4.70;2.47;;;11.10;91.70;;;;;;4991861;28;20109;-68
2022/06/10 12:15:12;;;;;;;3.38;1.90;;;11.10;91.80;;;;;;5050228;28;20424;-67
2022/06/10 12:17:45;;;;;;;2.30;1.33;;;11.00;92.00;;;;;;5013281;28;20042;-65
2022/06/10 12:20:38;;;;;;;2.20;1.33;;;11.00;92.10;;;;;;5035986;28;20036;-69
2022/06/10 12:23:14;;;;;;;3.20;1.52;;;10.90;92.10;;;;;;5013479;28;20029;-69
2022/06/10 12:25:59;;;;;;;3.80;3.30;;;10.90;92.20;;;;;;5022613;28;20493;-68
2022/06/10 12:29:17;;;;;;;4.43;3.05;;;11.00;92.40;;;;;;5051032;28;20070;-70
2022/06/10 12:32:02;;;;;;;5.05;4.22;;;10.90;92.50;;;;;;5010056;28;20088;-69
2022/06/10 12:34:32;;;;;;;4.90;3.78;;;10.80;92.60;;;;;;5040799;28;20474;-68
2022/06/10 12:37:07;;;;;;;6.22;4.50;;;10.80;92.80;;;;;;5032584;28;20079;-67
2022/06/10 12:40:00;;;;;;;6.13;5.30;;;10.80;92.90;;;;;;5040454;28;20030;-67
2022/06/10 12:42:54;;;;;;;7.28;4.47;;;10.80;93.10;;;;;;5033055;28;20037;-67
2022/06/10 12:45:27;;;;;;;3.58;2.30;;;10.80;92.90;;;;;;5033049;28;20505;-68
2022/06/10 12:48:01;;;;;;;9.27;5.57;;;10.80;93.20;;;;;;5032850;28;20504;-67
2022/06/10 12:50:37;;;;;;;1.90;1.20;;;10.80;93.20;;;;;;5040684;28;20029;-68
2022/06/10 12:53:43;;;;;;;3.42;2.05;;;10.80;93.10;;;;;;5056659;28;20049;-70
2022/06/10 12:56:32;;;;;;;11.63;8.57;;;10.80;93.10;;;;;;5030744;28;20041;-68
2022/06/10 12:59:09;;;;;;;4.03;2.00;;;10.80;93.10;;;;;;5032288;28;20028;-66
2022/06/10 13:01:36;;;;;;;4.95;3.78;;;10.80;93.20;;;;;;5032578;28;20045;-67
2022/06/10 13:04:11;;;;;;;2.10;1.50;;;10.80;93.40;;;;;;5048867;28;20048;-67
2022/06/10 13:06:44;;;;;;;1.92;1.30;;;10.80;93.40;;;;;;5051655;28;20497;-66
2022/06/10 13:09:12;;;;;;;3.83;1.48;;;10.80;93.40;;;;;;5043816;28;20068;-68
2022/06/10 13:11:41;;;;;;;3.53;2.10;;;10.80;93.60;;;;;;5031023;28;20033;-67
2022/06/10 13:14:19;;;;;;;5.07;3.10;;;10.70;93.60;;;;;;5035605;28;20009;-70
2022/06/10 13:17:17;;;;;;;2.45;1.27;;;10.80;93.70;;;;;;5051176;28;20037;-70
2022/06/10 13:19:57;;;;;;;2.28;1.98;;;10.80;93.70;;;;;;5039022;28;20022;-76
2022/06/10 13:23:05;;;;;;;7.03;4.60;;;10.80;93.80;;;;;;5031793;28;20033;-76
2022/06/10 13:25:32;;;;;;;11.93;8.68;;;10.70;93.90;;;;;;5031866;28;20029;-66
2022/06/10 13:28:00;;;;;;;11.20;9.48;;;10.80;93.90;;;;;;5051185;28;20025;-71
2022/06/10 13:30:31;;;;;;;3.10;1.65;;;10.80;93.90;;;;;;5048192;28;20068;-69
2022/06/10 13:33:15;;;;;;;3.88;2.55;;;10.80;94.00;;;;;;5041476;28;20035;-72
2022/06/10 13:35:45;;;;;;;4.00;2.13;;;10.80;94.10;;;;;;5031583;28;20056;-68
2022/06/10 13:38:18;;;;;;;4.25;2.65;;;10.80;94.00;;;;;;5035788;28;20090;-71
2022/06/10 13:44:16;;;;;;;1.27;1.02;;;10.80;94.20;;;;;;5035697;28;20028;-69
2022/06/10 13:46:47;;;;;;;3.67;1.60;;;10.80;94.30;;;;;;5051422;28;20025;-69
2022/06/10 13:52:24;;;;;;;1.73;0.95;;;10.80;94.40;;;;;;5014038;28;20110;-74
2022/06/10 13:54:52;;;;;;;2.17;1.10;;;10.80;94.40;;;;;;5029989;28;20705;-70
2022/06/10 13:57:39;;;;;;;1.73;0.98;;;10.80;94.50;;;;;;5030821;28;20124;-71